Time;durP1;ratioP1;P1;durP2;ratioP2;P2;SDS_P1;SDS_P2;PMS_P1;PMS_P2;Temp;Humidity;BMP_temperature;BMP_pressure;BME280_temperature;BME280_humidity;BME280_pressure;Samples;Min_cycle;Max_cycle;Signal;HPM_P1;HPM_P2
2022/10/19 00:01:35;;;;;;;21.52;11.00;;;20.00;80.20;;;;;;7373875;19;20031;-83
2022/10/19 00:04:04;;;;;;;20.40;11.73;;;20.00;80.20;;;;;;7369607;19;20374;-83
2022/10/19 00:06:34;;;;;;;18.35;10.63;;;20.00;80.10;;;;;;7381361;19;20018;-83
2022/10/19 00:09:07;;;;;;;20.50;10.82;;;19.90;80.10;;;;;;7378781;19;20451;-81
2022/10/19 00:11:39;;;;;;;15.90;10.63;;;19.90;80.10;;;;;;7400898;19;20093;-83
2022/10/19 00:14:08;;;;;;;;;;;19.90;80.10;;;;;;7380282;19;20010;-83
2022/10/19 00:16:39;;;;;;;15.38;9.90;;;20.00;80.00;;;;;;7382539;19;20500;-83
2022/10/19 00:19:10;;;;;;;24.70;11.43;;;19.90;79.60;;;;;;7380264;19;20414;-83
2022/10/19 00:21:39;;;;;;;20.67;10.87;;;19.90;79.70;;;;;;7377584;19;20037;-84
2022/10/19 00:24:11;;;;;;;19.08;10.57;;;19.90;79.60;;;;;;7375283;19;20014;-82
2022/10/19 00:26:40;;;;;;;19.67;10.18;;;19.80;79.70;;;;;;7399583;19;20028;-83
2022/10/19 00:29:09;;;;;;;22.85;10.52;;;19.80;79.70;;;;;;7375847;19;20081;-84
2022/10/19 00:31:38;;;;;;;25.70;9.80;;;19.80;79.60;;;;;;7377888;19;20018;-84
2022/10/19 00:34:07;;;;;;;20.95;10.52;;;19.70;79.50;;;;;;7378000;19;20007;-84
2022/10/19 00:36:38;;;;;;;24.65;10.57;;;19.70;79.70;;;;;;7379285;19;20013;-85
2022/10/19 00:39:11;;;;;;;21.90;10.23;;;19.70;79.50;;;;;;7377752;19;20050;-83
2022/10/19 00:41:41;;;;;;;19.40;9.60;;;19.70;79.50;;;;;;7400295;19;20023;-84
2022/10/19 00:44:45;;;;;;;21.70;10.25;;;19.70;79.50;;;;;;7375988;19;20102;-84
2022/10/19 00:47:13;;;;;;;20.88;11.02;;;19.60;79.70;;;;;;7377591;19;20076;-84
2022/10/19 00:49:45;;;;;;;18.50;9.75;;;19.60;79.70;;;;;;7377919;19;20022;-84
2022/10/19 00:52:17;;;;;;;17.95;9.98;;;19.60;79.90;;;;;;7377771;19;20015;-84
2022/10/19 00:54:48;;;;;;;;;;;19.50;80.00;;;;;;7377269;19;20061;-84
2022/10/19 00:57:17;;;;;;;;;;;19.60;80.40;;;;;;7378056;19;20302;-84
2022/10/19 00:59:48;;;;;;;29.63;9.15;;;19.60;80.60;;;;;;7403462;19;19921;-84
2022/10/19 01:02:17;;;;;;;24.97;9.77;;;19.50;80.40;;;;;;7390078;19;20010;-84
2022/10/19 01:04:50;;;;;;;24.80;9.77;;;19.50;80.60;;;;;;7412793;19;20256;-85
2022/10/19 01:07:20;;;;;;;14.95;8.88;;;19.40;80.60;;;;;;7403170;19;20018;-85
2022/10/19 01:09:51;;;;;;;22.05;8.93;;;19.50;80.50;;;;;;7389284;19;20018;-84
2022/10/19 01:12:40;;;;;;;20.63;9.25;;;19.40;80.40;;;;;;7411941;19;20023;-84
2022/10/19 01:15:21;;;;;;;19.42;8.48;;;19.50;80.40;;;;;;7400062;19;20140;-84
2022/10/19 01:18:00;;;;;;;23.00;8.90;;;19.50;80.30;;;;;;7401643;19;20018;-85
2022/10/19 01:21:08;;;;;;;20.02;8.57;;;19.50;80.10;;;;;;7386490;19;20023;-85
2022/10/19 01:24:06;;;;;;;14.60;7.85;;;19.40;80.30;;;;;;7376892;19;20094;-84
2022/10/19 01:27:07;;;;;;;16.80;7.95;;;19.40;80.30;;;;;;7377742;19;20051;-84
2022/10/19 01:29:55;;;;;;;16.07;7.67;;;19.40;80.30;;;;;;7377847;19;20014;-84
2022/10/19 01:32:31;;;;;;;13.73;8.30;;;19.40;80.00;;;;;;7378216;19;20290;-85
2022/10/19 01:35:08;;;;;;;23.00;8.65;;;19.40;79.90;;;;;;7377964;19;20014;-85
2022/10/19 01:37:42;;;;;;;13.23;7.40;;;19.40;79.90;;;;;;7379573;19;20104;-85
2022/10/19 01:40:14;;;;;;;19.38;8.55;;;19.40;79.90;;;;;;7377798;19;20078;-84
2022/10/19 01:42:48;;;;;;;24.05;7.22;;;19.40;79.70;;;;;;7376651;19;20017;-84
2022/10/19 01:45:27;;;;;;;25.35;7.78;;;19.40;79.80;;;;;;7375963;19;20032;-84
2022/10/19 01:48:01;;;;;;;19.45;6.82;;;19.40;79.60;;;;;;7399243;19;20652;-84
2022/10/19 01:50:35;;;;;;;29.90;7.95;;;19.40;79.30;;;;;;7375687;19;20434;-84
2022/10/19 01:53:06;;;;;;;22.85;6.97;;;19.40;79.20;;;;;;7378938;19;20018;-85
2022/10/19 01:55:35;;;;;;;26.20;6.93;;;19.40;79.30;;;;;;7378286;19;20090;-84
2022/10/19 01:58:08;;;;;;;22.17;7.15;;;19.40;79.10;;;;;;7374561;19;20390;-84
2022/10/19 02:00:42;;;;;;;25.15;7.00;;;19.40;79.00;;;;;;7376092;19;20422;-84
2022/10/19 02:03:13;;;;;;;19.38;6.55;;;19.30;78.70;;;;;;7375955;19;20015;-83
2022/10/19 02:05:43;;;;;;;17.95;7.20;;;19.30;78.60;;;;;;7398239;19;20021;-85
2022/10/19 02:08:16;;;;;;;15.02;6.78;;;19.30;78.60;;;;;;7375986;19;20021;-84
2022/10/19 02:10:46;;;;;;;22.40;7.95;;;19.30;78.70;;;;;;7375959;19;20073;-83
2022/10/19 02:13:17;;;;;;;25.35;7.55;;;19.20;78.60;;;;;;7378205;19;20014;-84
2022/10/19 02:15:52;;;;;;;13.90;7.53;;;19.20;78.70;;;;;;7372527;19;20012;-85
2022/10/19 02:18:26;;;;;;;20.67;7.85;;;19.20;79.00;;;;;;7373035;19;20040;-85
2022/10/19 02:20:55;;;;;;;15.10;7.68;;;19.20;79.90;;;;;;7399442;19;20086;-85
2022/10/19 02:23:28;;;;;;;15.48;8.30;;;19.20;79.10;;;;;;7374437;19;20035;-85
2022/10/19 02:25:58;;;;;;;19.33;7.53;;;19.20;79.30;;;;;;7371406;19;20041;-84
2022/10/19 02:28:27;;;;;;;22.38;8.45;;;19.20;79.50;;;;;;7375891;19;20392;-85
2022/10/19 02:30:59;;;;;;;25.95;8.85;;;19.20;79.40;;;;;;7375960;19;20089;-85
2022/10/19 02:33:30;;;;;;;20.13;8.18;;;19.20;79.60;;;;;;7382934;19;20031;-85
2022/10/19 02:35:59;;;;;;;28.08;8.93;;;19.20;79.60;;;;;;7429839;19;20003;-85
2022/10/19 02:38:28;;;;;;;14.90;7.40;;;19.20;79.50;;;;;;7409088;19;20018;-85
2022/10/19 02:41:05;;;;;;;24.60;9.35;;;19.20;79.40;;;;;;7387401;19;20425;-84
2022/10/19 02:43:37;;;;;;;17.63;8.98;;;19.20;79.90;;;;;;7374756;19;20031;-85
2022/10/19 02:46:10;;;;;;;;;;;19.20;80.00;;;;;;7376010;19;20011;-85
2022/10/19 02:48:42;;;;;;;18.15;9.55;;;19.30;80.30;;;;;;7376587;19;19926;-84
2022/10/19 02:51:25;;;;;;;;;;;19.20;80.00;;;;;;7375499;19;20021;-84
2022/10/19 02:53:54;;;;;;;22.05;8.25;;;19.30;80.20;;;;;;7395722;19;19953;-84
2022/10/19 02:56:22;;;;;;;22.38;9.00;;;19.30;79.90;;;;;;7371158;19;20777;-85
2022/10/19 02:58:51;;;;;;;15.70;8.13;;;19.30;79.90;;;;;;7374293;19;20022;-85
2022/10/19 03:01:23;;;;;;;16.58;7.82;;;19.30;79.50;;;;;;7375004;19;20015;-85
2022/10/19 03:03:51;;;;;;;17.40;7.65;;;19.20;79.10;;;;;;7376019;19;20485;-85
2022/10/19 03:06:20;;;;;;;13.38;7.88;;;19.20;78.80;;;;;;7375962;19;20576;-85
2022/10/19 03:08:49;;;;;;;18.70;7.57;;;19.20;78.70;;;;;;7392316;19;20336;-84
2022/10/19 03:11:18;;;;;;;16.15;8.05;;;19.20;78.70;;;;;;7372970;19;20025;-85
2022/10/19 03:13:50;;;;;;;21.52;8.68;;;19.10;78.60;;;;;;7379670;19;20036;-84
2022/10/19 03:16:22;;;;;;;15.38;9.02;;;19.10;78.80;;;;;;7379760;19;20058;-84
2022/10/19 03:18:50;;;;;;;15.65;8.93;;;19.10;78.90;;;;;;7371686;19;20467;-84
2022/10/19 03:21:20;;;;;;;20.77;8.88;;;19.10;79.30;;;;;;7373345;19;20105;-84
2022/10/19 03:23:49;;;;;;;18.45;10.15;;;19.10;79.60;;;;;;7394421;19;20018;-84
2022/10/19 03:26:19;;;;;;;17.70;9.10;;;19.10;79.70;;;;;;7372628;19;20840;-84
2022/10/19 03:28:47;;;;;;;19.35;9.18;;;19.10;79.70;;;;;;7372888;19;20447;-84
2022/10/19 03:31:16;;;;;;;20.90;9.52;;;19.10;79.70;;;;;;7372082;19;20022;-84
2022/10/19 03:33:48;;;;;;;21.60;9.45;;;19.10;79.80;;;;;;7370886;19;20014;-84
2022/10/19 03:36:21;;;;;;;17.30;9.40;;;19.10;79.80;;;;;;7370863;19;20046;-84
2022/10/19 03:38:51;;;;;;;13.05;8.85;;;19.10;80.30;;;;;;7392671;19;20089;-83
2022/10/19 03:41:20;;;;;;;16.65;8.27;;;19.10;79.30;;;;;;7372854;19;20022;-84
2022/10/19 03:43:49;;;;;;;16.33;8.85;;;19.10;79.00;;;;;;7370888;19;20028;-84
2022/10/19 03:46:18;;;;;;;22.45;9.05;;;19.10;79.00;;;;;;7371972;19;20019;-84
2022/10/19 03:48:50;;;;;;;16.50;8.88;;;19.10;79.20;;;;;;7373154;19;20089;-84
2022/10/19 03:51:21;;;;;;;15.00;9.30;;;19.10;79.60;;;;;;7374307;19;20516;-84
2022/10/19 03:53:53;;;;;;;19.88;8.88;;;19.10;79.70;;;;;;7396837;19;20026;-83
2022/10/19 03:56:24;;;;;;;17.48;9.80;;;19.10;79.70;;;;;;7377219;19;20085;-84
2022/10/19 03:58:54;;;;;;;28.98;12.23;;;19.00;79.90;;;;;;7375075;19;20031;-84
2022/10/19 04:01:25;;;;;;;21.00;10.75;;;19.00;80.00;;;;;;7372948;19;20022;-85
2022/10/19 04:03:58;;;;;;;20.70;10.77;;;19.00;80.30;;;;;;7375385;19;20014;-84
2022/10/19 04:06:29;;;;;;;25.55;9.52;;;19.00;80.40;;;;;;7404922;19;20026;-84
2022/10/19 04:08:58;;;;;;;18.35;8.63;;;19.00;80.20;;;;;;7424557;19;20011;-84
2022/10/19 04:11:28;;;;;;;22.70;8.70;;;19.10;79.90;;;;;;7372885;19;20014;-84
2022/10/19 04:13:58;;;;;;;14.95;8.25;;;19.00;79.40;;;;;;7372764;19;20428;-84
2022/10/19 04:16:29;;;;;;;18.08;8.75;;;19.00;79.10;;;;;;7372853;19;20055;-85
2022/10/19 04:19:01;;;;;;;14.45;7.50;;;19.00;78.80;;;;;;7375828;19;20015;-84
2022/10/19 04:21:32;;;;;;;14.68;8.07;;;19.00;78.70;;;;;;7373543;19;20010;-84
2022/10/19 04:24:02;;;;;;;19.15;8.05;;;19.00;78.70;;;;;;7390877;19;20090;-85
2022/10/19 04:26:31;;;;;;;16.90;9.32;;;18.90;78.70;;;;;;7373854;19;20019;-84
2022/10/19 04:29:00;;;;;;;19.40;8.95;;;19.00;78.70;;;;;;7370430;19;20027;-84
2022/10/19 04:31:30;;;;;;;20.77;8.05;;;18.90;78.60;;;;;;7369931;19;20128;-86
2022/10/19 04:34:01;;;;;;;17.63;8.80;;;18.90;78.10;;;;;;7377658;19;20028;-85
2022/10/19 04:36:30;;;;;;;19.48;7.88;;;18.90;78.10;;;;;;7378139;19;20079;-83
2022/10/19 04:38:59;;;;;;;20.23;8.02;;;18.90;78.70;;;;;;7390535;19;20019;-84
2022/10/19 04:41:28;;;;;;;12.05;7.47;;;18.80;77.60;;;;;;7369400;19;20023;-84
2022/10/19 04:43:58;;;;;;;16.00;8.85;;;18.80;77.70;;;;;;7370754;19;20014;-84
2022/10/19 04:46:28;;;;;;;13.20;8.27;;;18.80;78.00;;;;;;7371625;19;20031;-84
2022/10/19 04:49:03;;;;;;;15.68;7.72;;;18.80;78.90;;;;;;7370537;19;20038;-84
2022/10/19 04:51:32;;;;;;;14.70;7.90;;;18.70;78.00;;;;;;7371425;19;20015;-84
2022/10/19 04:54:00;;;;;;;20.33;7.68;;;18.80;78.00;;;;;;7400400;19;20011;-85
2022/10/19 04:56:31;;;;;;;15.52;8.10;;;18.70;78.00;;;;;;7405311;19;20348;-85
2022/10/19 04:59:01;;;;;;;21.10;10.13;;;18.70;78.10;;;;;;7409407;19;20019;-84
2022/10/19 05:01:32;;;;;;;20.52;9.90;;;18.70;78.40;;;;;;7408419;19;20026;-85
2022/10/19 05:04:04;;;;;;;16.52;9.27;;;18.70;78.80;;;;;;7382050;19;20006;-85
2022/10/19 05:06:33;;;;;;;21.60;9.15;;;18.60;79.10;;;;;;7385985;19;20018;-85
2022/10/19 05:09:03;;;;;;;22.35;9.27;;;18.70;79.30;;;;;;7385492;19;20045;-86
2022/10/19 05:11:32;;;;;;;22.13;10.52;;;18.70;79.50;;;;;;7409061;19;20070;-86
2022/10/19 05:14:01;;;;;;;16.67;9.60;;;18.70;79.60;;;;;;7386755;19;20054;-88
2022/10/19 05:16:29;;;;;;;18.55;8.05;;;18.70;79.70;;;;;;7391356;19;20022;-90
2022/10/19 05:19:00;;;;;;;16.90;7.25;;;18.70;79.10;;;;;;7391107;19;20106;-88
2022/10/19 05:21:31;;;;;;;20.02;9.35;;;18.60;78.30;;;;;;7391140;19;20003;-89
2022/10/19 05:24:00;;;;;;;;;;;18.60;78.80;;;;;;7418719;19;20014;-85
2022/10/19 05:26:29;;;;;;;15.50;8.63;;;18.70;77.90;;;;;;7390670;19;19930;-89
2022/10/19 05:29:01;;;;;;;12.95;7.63;;;18.60;77.60;;;;;;7377580;19;20024;-79
2022/10/19 05:31:30;;;;;;;;;;;18.60;77.80;;;;;;7376220;19;20082;-80
2022/10/19 05:33:59;;;;;;;14.60;8.00;;;18.60;78.00;;;;;;7372868;19;19918;-81
2022/10/19 05:36:33;;;;;;;12.02;7.95;;;18.60;77.90;;;;;;7377553;19;20082;-80
2022/10/19 05:39:04;;;;;;;12.52;7.00;;;18.50;77.70;;;;;;7393981;19;20037;-80
2022/10/19 05:41:33;;;;;;;24.10;8.93;;;18.50;77.50;;;;;;7415713;19;20072;-80
2022/10/19 05:44:03;;;;;;;17.17;8.80;;;18.50;77.30;;;;;;7376634;19;20074;-80
2022/10/19 05:46:33;;;;;;;18.45;8.82;;;18.50;77.60;;;;;;7374102;19;20115;-79
2022/10/19 05:49:02;;;;;;;18.20;8.50;;;18.50;78.00;;;;;;7370675;19;20025;-79
2022/10/19 05:51:33;;;;;;;16.42;7.43;;;18.50;79.10;;;;;;7377640;19;20130;-80
2022/10/19 05:54:02;;;;;;;19.52;10.13;;;18.50;78.20;;;;;;7381058;19;20019;-79
2022/10/19 05:56:33;;;;;;;17.80;7.43;;;18.50;77.90;;;;;;7397650;19;20014;-79
2022/10/19 05:59:03;;;;;;;17.08;7.43;;;18.40;77.60;;;;;;7374579;19;20078;-80
2022/10/19 06:01:33;;;;;;;12.13;7.93;;;18.40;77.30;;;;;;7375373;19;20043;-79
2022/10/19 06:04:03;;;;;;;23.88;8.25;;;18.40;77.20;;;;;;7375132;19;20007;-80
2022/10/19 06:06:34;;;;;;;24.92;7.70;;;18.40;77.00;;;;;;7374222;19;20010;-79
2022/10/19 06:09:03;;;;;;;20.70;7.93;;;18.30;77.00;;;;;;7373938;19;20017;-79
2022/10/19 06:11:35;;;;;;;14.73;7.70;;;18.40;77.00;;;;;;7395972;19;20017;-79
2022/10/19 06:14:06;;;;;;;19.88;7.53;;;18.30;76.90;;;;;;7374006;19;20011;-80
2022/10/19 06:16:35;;;;;;;11.68;6.65;;;18.30;76.90;;;;;;7373187;19;20837;-79
2022/10/19 06:19:04;;;;;;;12.13;6.95;;;18.30;76.80;;;;;;7374419;19;20010;-79
2022/10/19 06:21:36;;;;;;;14.70;7.75;;;18.30;76.90;;;;;;7375327;19;20021;-79
2022/10/19 06:24:06;;;;;;;13.32;8.40;;;18.30;77.00;;;;;;7373554;19;20013;-79
2022/10/19 06:26:36;;;;;;;15.20;7.80;;;18.30;77.00;;;;;;7398298;19;20018;-80
2022/10/19 06:29:06;;;;;;;12.52;7.10;;;18.30;76.90;;;;;;7376958;19;20014;-80
2022/10/19 06:31:37;;;;;;;22.02;9.13;;;18.30;77.00;;;;;;7376321;19;20910;-79
2022/10/19 06:34:06;;;;;;;16.90;8.13;;;18.30;77.20;;;;;;7373853;19;20737;-80
2022/10/19 06:36:37;;;;;;;16.77;8.68;;;18.30;77.50;;;;;;7377483;19;20031;-80
2022/10/19 06:39:06;;;;;;;18.25;8.80;;;18.30;77.60;;;;;;7379891;19;20030;-79
2022/10/19 06:41:35;;;;;;;16.45;7.80;;;18.40;77.80;;;;;;7397098;19;20090;-79
2022/10/19 06:44:04;;;;;;;14.68;8.77;;;18.40;77.90;;;;;;7373605;19;20010;-79
2022/10/19 06:46:33;;;;;;;16.48;8.73;;;18.40;78.00;;;;;;7377708;19;20063;-79
2022/10/19 06:49:03;;;;;;;22.55;7.97;;;18.40;78.50;;;;;;7375374;19;20808;-79
2022/10/19 06:51:33;;;;;;;18.70;9.45;;;18.50;78.60;;;;;;7372397;19;20752;-79
2022/10/19 06:54:05;;;;;;;20.70;9.88;;;18.50;78.80;;;;;;7384094;19;20010;-78
2022/10/19 06:56:34;;;;;;;23.40;10.57;;;18.50;79.20;;;;;;7393947;19;20441;-80
2022/10/19 06:59:03;;;;;;;20.95;10.63;;;18.60;79.50;;;;;;7371773;19;20103;-80
2022/10/19 07:01:32;;;;;;;19.83;10.30;;;18.60;79.80;;;;;;7373110;19;20014;-79
2022/10/19 07:04:01;;;;;;;31.35;11.48;;;18.70;80.10;;;;;;7372171;19;20024;-80
2022/10/19 07:06:30;;;;;;;18.17;11.05;;;18.70;80.10;;;;;;7374095;19;20029;-79
2022/10/19 07:08:59;;;;;;;21.25;11.30;;;18.80;80.20;;;;;;7394552;19;20286;-79
2022/10/19 07:11:30;;;;;;;22.08;11.50;;;18.80;80.40;;;;;;7374593;19;20015;-79
2022/10/19 07:13:59;;;;;;;;;;;18.90;80.70;;;;;;7372028;19;20018;-80
2022/10/19 07:16:27;;;;;;;24.48;12.60;;;19.00;80.90;;;;;;7372162;19;19918;-80
2022/10/19 07:18:56;;;;;;;24.40;13.07;;;19.00;80.60;;;;;;7372016;19;20636;-80
2022/10/19 07:21:25;;;;;;;23.15;13.43;;;19.10;80.90;;;;;;7371934;19;20046;-79
2022/10/19 07:23:54;;;;;;;20.65;12.95;;;19.10;81.00;;;;;;7391773;19;20028;-80
2022/10/19 07:26:26;;;;;;;26.48;12.00;;;19.10;81.00;;;;;;7371101;19;20081;-80
2022/10/19 07:28:58;;;;;;;23.85;12.93;;;19.10;81.00;;;;;;7371867;19;20070;-80
2022/10/19 07:31:29;;;;;;;24.05;12.98;;;19.10;81.10;;;;;;7373637;19;20038;-80
2022/10/19 07:33:59;;;;;;;24.60;12.43;;;19.20;81.00;;;;;;7370483;19;20014;-80
2022/10/19 07:36:30;;;;;;;28.65;13.07;;;19.20;81.00;;;;;;7371730;19;20104;-80
2022/10/19 07:38:58;;;;;;;22.15;11.75;;;19.30;80.90;;;;;;7390933;19;20010;-80
2022/10/19 07:41:27;;;;;;;24.90;11.68;;;19.30;80.90;;;;;;7371438;19;20017;-80
2022/10/19 07:43:59;;;;;;;22.25;12.10;;;19.40;80.90;;;;;;7371470;19;20020;-80
2022/10/19 07:46:32;;;;;;;25.77;11.57;;;19.40;80.90;;;;;;7371426;19;20018;-80
2022/10/19 07:49:00;;;;;;;20.83;11.52;;;19.40;80.80;;;;;;7371666;19;20292;-80
2022/10/19 07:51:29;;;;;;;26.52;12.68;;;19.40;80.80;;;;;;7371215;19;20384;-80
2022/10/19 07:53:59;;;;;;;24.25;11.75;;;19.40;80.70;;;;;;7390260;19;20469;-80
2022/10/19 07:56:29;;;;;;;20.23;10.82;;;19.40;80.70;;;;;;7371922;19;20007;-79
2022/10/19 07:59:03;;;;;;;29.40;11.40;;;19.50;80.80;;;;;;7372259;19;20085;-80
2022/10/19 08:01:34;;;;;;;21.58;10.75;;;19.50;80.60;;;;;;7370876;19;20026;-80
2022/10/19 08:04:03;;;;;;;21.60;11.85;;;19.50;80.50;;;;;;7371481;19;20022;-81
2022/10/19 08:06:32;;;;;;;25.40;10.77;;;19.60;80.40;;;;;;7371979;19;20017;-80
2022/10/19 08:09:00;;;;;;;19.67;10.00;;;19.60;80.40;;;;;;7391135;19;20014;-80
2022/10/19 08:11:31;;;;;;;23.95;10.65;;;19.60;80.40;;;;;;7370718;19;20011;-80
2022/10/19 08:14:04;;;;;;;18.17;10.32;;;19.70;80.40;;;;;;7369588;19;20797;-79
2022/10/19 08:16:36;;;;;;;20.10;9.77;;;19.70;80.40;;;;;;7368764;19;20350;-79
2022/10/19 08:19:06;;;;;;;21.33;10.23;;;19.80;80.20;;;;;;7367000;19;20022;-78
2022/10/19 08:21:36;;;;;;;26.00;10.52;;;19.80;80.10;;;;;;7369663;19;20034;-80
2022/10/19 08:24:05;;;;;;;19.67;10.13;;;19.90;80.10;;;;;;7371873;19;20821;-77
2022/10/19 08:26:36;;;;;;;20.80;10.82;;;19.90;79.80;;;;;;7395819;19;20795;-79
2022/10/19 08:29:08;;;;;;;;;;;19.90;79.80;;;;;;7375507;19;20040;-79
2022/10/19 08:31:37;;;;;;;16.23;8.75;;;20.00;79.90;;;;;;7376521;19;20432;-80
2022/10/19 08:34:07;;;;;;;16.63;9.13;;;20.00;79.50;;;;;;7378093;19;20586;-80
2022/10/19 08:36:35;;;;;;;22.35;10.20;;;20.00;79.50;;;;;;7376591;19;20010;-79
2022/10/19 08:39:06;;;;;;;18.95;9.10;;;20.00;79.50;;;;;;7378936;19;20532;-78
2022/10/19 08:41:39;;;;;;;20.53;9.17;;;20.00;79.40;;;;;;7414260;19;20027;-79
2022/10/19 08:44:31;;;;;;;16.55;9.15;;;19.90;79.40;;;;;;7388736;19;20022;-79
2022/10/19 08:47:11;;;;;;;21.38;9.45;;;19.90;79.40;;;;;;7384412;19;20021;-79
2022/10/19 08:49:40;;;;;;;14.32;9.38;;;19.90;79.20;;;;;;7377438;19;20484;-79
2022/10/19 08:52:14;;;;;;;21.60;9.60;;;20.00;79.20;;;;;;7377042;19;20007;-79
2022/10/19 08:54:48;;;;;;;24.17;9.80;;;19.90;79.40;;;;;;7377323;19;20337;-78
2022/10/19 08:57:30;;;;;;;21.27;9.68;;;19.90;79.50;;;;;;7375082;19;20021;-79
2022/10/19 09:00:07;;;;;;;20.95;10.18;;;19.90;79.60;;;;;;7399485;19;20022;-80
2022/10/19 09:02:56;;;;;;;18.10;9.93;;;19.90;79.70;;;;;;7376038;19;20015;-79
2022/10/19 09:05:34;;;;;;;14.93;9.48;;;19.90;79.90;;;;;;7377111;19;20015;-79
2022/10/19 09:08:02;;;;;;;18.17;10.07;;;19.90;79.80;;;;;;7375938;19;20014;-79
2022/10/19 09:10:36;;;;;;;20.73;10.52;;;19.90;79.90;;;;;;7376796;19;20018;-79
2022/10/19 09:13:09;;;;;;;15.07;9.60;;;19.80;79.90;;;;;;7375988;19;20492;-81
2022/10/19 09:15:44;;;;;;;16.27;9.65;;;19.80;79.80;;;;;;7374406;19;20415;-79
2022/10/19 09:18:26;;;;;;;17.52;9.40;;;19.80;80.00;;;;;;7374775;19;20025;-78
2022/10/19 09:21:01;;;;;;;14.82;9.85;;;19.80;80.10;;;;;;7397484;19;20045;-79
2022/10/19 09:23:36;;;;;;;22.65;10.15;;;19.90;80.10;;;;;;7376503;19;20086;-80
2022/10/19 09:26:07;;;;;;;18.65;9.13;;;19.90;80.20;;;;;;7375559;19;20011;-79
2022/10/19 09:28:47;;;;;;;16.63;9.57;;;19.90;80.20;;;;;;7376109;19;20741;-78
2022/10/19 09:31:24;;;;;;;16.77;9.07;;;19.90;80.20;;;;;;7374785;19;20078;-79
2022/10/19 09:33:58;;;;;;;16.70;9.55;;;20.00;80.20;;;;;;7375895;19;20017;-79
2022/10/19 09:36:35;;;;;;;14.88;9.02;;;20.00;80.30;;;;;;7372865;19;20523;-78
2022/10/19 09:39:05;;;;;;;22.63;8.82;;;20.10;80.40;;;;;;7376686;19;20035;-79
2022/10/19 09:41:35;;;;;;;18.85;9.50;;;20.10;80.10;;;;;;7404893;19;20019;-79
2022/10/19 09:44:04;;;;;;;17.90;8.90;;;20.10;79.90;;;;;;7379359;19;20090;-80
2022/10/19 09:46:50;;;;;;;21.27;8.90;;;20.20;80.00;;;;;;7375811;19;20118;-79
2022/10/19 09:49:20;;;;;;;19.25;8.27;;;20.20;80.00;;;;;;7379472;19;20022;-78
2022/10/19 09:51:52;;;;;;;17.55;8.55;;;20.20;79.80;;;;;;7388478;19;20006;-79
2022/10/19 09:54:37;;;;;;;15.93;8.25;;;20.20;79.60;;;;;;7383483;19;20364;-79
2022/10/19 09:57:07;;;;;;;12.82;8.30;;;20.20;79.80;;;;;;7380034;19;20364;-77
2022/10/19 09:59:37;;;;;;;12.65;7.40;;;20.20;79.50;;;;;;7396728;19;20025;-79
2022/10/19 10:02:17;;;;;;;15.27;7.47;;;20.20;79.50;;;;;;7374568;19;20017;-79
2022/10/19 10:04:56;;;;;;;14.13;7.88;;;20.20;79.70;;;;;;7373503;19;20018;-80
2022/10/19 10:07:29;;;;;;;10.77;7.25;;;20.30;79.60;;;;;;7375390;19;20013;-79
2022/10/19 10:10:00;;;;;;;13.27;7.10;;;20.30;79.70;;;;;;7377966;19;20080;-79
2022/10/19 10:12:28;;;;;;;14.30;6.88;;;20.30;79.50;;;;;;7375388;19;20010;-80
2022/10/19 10:14:57;;;;;;;13.32;6.97;;;20.40;79.40;;;;;;7396549;19;20587;-80
2022/10/19 10:17:33;;;;;;;12.10;7.03;;;20.40;79.30;;;;;;7373673;19;20505;-80
2022/10/19 10:20:22;;;;;;;22.40;7.63;;;20.40;79.30;;;;;;7372506;19;20014;-80
2022/10/19 10:22:56;;;;;;;11.02;7.38;;;20.40;79.40;;;;;;7373084;19;20051;-79
2022/10/19 10:25:28;;;;;;;23.02;7.72;;;20.50;79.10;;;;;;7373607;19;20044;-80
2022/10/19 10:27:59;;;;;;;14.60;6.80;;;20.50;79.20;;;;;;7375157;19;20081;-79
2022/10/19 10:30:30;;;;;;;;;;;20.60;79.00;;;;;;7375185;19;20018;-80
2022/10/19 10:33:03;;;;;;;17.17;7.10;;;20.70;79.10;;;;;;7395897;19;20579;-80
2022/10/19 10:35:35;;;;;;;26.38;7.40;;;20.60;78.50;;;;;;7373542;19;20014;-80
2022/10/19 10:38:11;;;;;;;12.95;6.78;;;20.70;78.70;;;;;;7371789;19;20016;-79
2022/10/19 10:40:41;;;;;;;11.27;6.75;;;20.70;78.80;;;;;;7372380;19;20086;-80
2022/10/19 10:43:16;;;;;;;9.63;5.78;;;20.70;78.70;;;;;;7373050;19;20062;-80
2022/10/19 10:45:46;;;;;;;10.85;6.55;;;20.80;78.60;;;;;;7374944;19;20098;-79
2022/10/19 10:48:30;;;;;;;11.15;6.50;;;20.80;78.50;;;;;;7373956;19;20018;-80
2022/10/19 10:51:01;;;;;;;14.40;6.95;;;20.90;78.60;;;;;;7392333;19;20341;-80
2022/10/19 10:53:36;;;;;;;18.15;7.45;;;21.00;78.20;;;;;;7372667;19;20018;-80
2022/10/19 10:56:06;;;;;;;11.52;6.10;;;21.00;77.80;;;;;;7373456;19;20086;-79
2022/10/19 10:58:46;;;;;;;16.73;6.63;;;21.00;77.10;;;;;;7371733;19;20122;-79
2022/10/19 11:01:21;;;;;;;16.13;6.63;;;21.00;77.20;;;;;;7373516;19;20347;-79
2022/10/19 11:03:57;;;;;;;13.23;6.03;;;21.10;77.30;;;;;;7372698;19;20018;-79
2022/10/19 11:06:27;;;;;;;10.80;6.15;;;21.20;78.10;;;;;;7375352;19;20020;-79
2022/10/19 11:09:03;;;;;;;11.60;5.80;;;21.20;76.80;;;;;;7395731;19;20021;-79
2022/10/19 11:11:37;;;;;;;10.30;5.85;;;21.30;76.70;;;;;;7371679;19;20011;-79
2022/10/19 11:14:32;;;;;;;12.63;6.35;;;21.30;75.80;;;;;;7372008;19;20393;-79
2022/10/19 11:17:06;;;;;;;12.50;5.10;;;21.30;75.60;;;;;;7373605;19;20006;-79
2022/10/19 11:19:43;;;;;;;13.57;5.70;;;21.40;75.60;;;;;;7372156;19;20768;-79
2022/10/19 11:22:22;;;;;;;8.73;5.55;;;21.30;75.50;;;;;;7371615;19;20010;-79
2022/10/19 11:25:00;;;;;;;14.63;6.10;;;21.40;75.70;;;;;;7372562;19;20101;-80
2022/10/19 11:27:44;;;;;;;7.80;5.40;;;21.40;75.70;;;;;;7371910;19;20022;-80
2022/10/19 11:30:19;;;;;;;9.15;5.65;;;21.40;76.30;;;;;;7371008;19;20490;-80
2022/10/19 11:32:56;;;;;;;14.05;5.97;;;21.40;75.40;;;;;;7392146;19;20019;-80
2022/10/19 11:35:48;;;;;;;13.27;5.97;;;21.50;75.50;;;;;;7370610;19;20018;-79
2022/10/19 11:38:43;;;;;;;13.48;5.13;;;21.50;75.70;;;;;;7371475;19;20084;-79
2022/10/19 11:41:28;;;;;;;12.75;5.22;;;21.60;75.40;;;;;;7375027;19;20025;-78
2022/10/19 11:44:17;;;;;;;10.02;5.20;;;21.70;75.20;;;;;;7374434;19;20018;-81
2022/10/19 11:46:54;;;;;;;10.65;5.68;;;21.70;75.10;;;;;;7372199;19;20018;-79
2022/10/19 11:49:36;;;;;;;7.18;5.47;;;21.80;75.10;;;;;;7371410;19;20010;-79
2022/10/19 11:52:14;;;;;;;15.20;5.15;;;21.80;74.90;;;;;;7372151;19;20334;-79
2022/10/19 11:54:56;;;;;;;12.15;4.78;;;21.90;74.60;;;;;;7370087;19;20018;-79
2022/10/19 11:57:29;;;;;;;12.20;5.05;;;21.90;74.20;;;;;;7370486;19;20342;-78
2022/10/19 12:00:06;;;;;;;12.75;4.93;;;22.00;73.80;;;;;;7391438;19;20021;-79
2022/10/19 12:03:19;;;;;;;15.27;5.20;;;22.00;73.30;;;;;;7379944;19;20046;-79
2022/10/19 12:06:01;;;;;;;18.23;5.45;;;22.00;73.00;;;;;;7375891;19;20014;-79
2022/10/19 12:08:37;;;;;;;;;;;22.00;73.10;;;;;;7378613;19;20047;-79
2022/10/19 12:11:22;;;;;;;7.72;5.40;;;22.10;73.30;;;;;;7377691;19;19925;-79
2022/10/19 12:13:57;;;;;;;13.35;4.82;;;22.10;73.30;;;;;;7378250;19;20031;-78
2022/10/19 12:16:37;;;;;;;9.18;4.47;;;22.20;73.40;;;;;;7378525;19;20086;-80
2022/10/19 12:19:08;;;;;;;11.30;4.80;;;22.20;73.20;;;;;;7388024;19;20031;-80
2022/10/19 12:21:41;;;;;;;10.25;4.80;;;22.30;73.40;;;;;;7394430;19;20051;-80
2022/10/19 12:24:19;;;;;;;8.82;5.03;;;22.30;73.50;;;;;;7389933;19;20433;-80
2022/10/19 12:26:49;;;;;;;14.38;4.55;;;22.30;73.60;;;;;;7404085;19;20014;-79
2022/10/19 12:29:22;;;;;;;10.15;4.75;;;22.40;73.00;;;;;;7379078;19;20018;-79
2022/10/19 12:31:51;;;;;;;11.43;4.70;;;22.40;73.00;;;;;;7374136;19;20019;-76
2022/10/19 12:34:30;;;;;;;10.48;4.40;;;22.40;72.70;;;;;;7373556;19;20118;-77
2022/10/19 12:37:05;;;;;;;10.25;4.90;;;22.40;72.80;;;;;;7379147;19;20035;-77
2022/10/19 12:39:44;;;;;;;13.05;5.10;;;22.40;72.90;;;;;;7377612;19;20014;-77
2022/10/19 12:42:21;;;;;;;8.52;4.35;;;22.40;72.40;;;;;;7382194;19;20022;-76
2022/10/19 12:45:12;;;;;;;12.63;4.88;;;22.50;72.20;;;;;;7397068;19;20022;-76
2022/10/19 12:47:41;;;;;;;10.13;4.60;;;22.50;72.50;;;;;;7376164;19;20040;-77
2022/10/19 12:50:10;;;;;;;11.98;4.78;;;22.50;72.40;;;;;;7379690;19;20022;-78
2022/10/19 12:52:43;;;;;;;6.40;4.40;;;22.50;72.40;;;;;;7382301;19;20079;-78
2022/10/19 12:55:26;;;;;;;6.93;4.82;;;22.60;72.70;;;;;;7382221;19;20022;-77
2022/10/19 12:58:04;;;;;;;5.38;4.63;;;22.70;72.70;;;;;;7379137;19;20083;-78
2022/10/19 13:00:35;;;;;;;8.25;4.30;;;22.90;72.70;;;;;;7374339;19;20229;-77
2022/10/19 13:03:08;;;;;;;6.65;4.55;;;22.90;73.00;;;;;;7373672;19;20371;-76
2022/10/19 13:05:37;;;;;;;9.18;4.22;;;22.90;72.50;;;;;;7397752;19;20422;-76
2022/10/19 13:08:07;;;;;;;9.52;4.45;;;23.10;72.00;;;;;;7376162;19;20318;-76